Airfield :
LOGIN :

Register | Disclaimer

   EN    FR    IT 

 










Legend :    VFR   Marginal VFR   IFR   Intensive IFR   Very Intensive IFR
Visi :
Ceiling :
>= 8 km
>= 3000ft
5 to 8 km
1000 to 3000 ft
1500m to 5 km
500 to 1000 ft
800 to 1500m
200 to 500 ft
< 800m
< 200 ft
Symbols :   Thunderstorms  Fog  Heavy snow  Heavy precipitations  Wind > 20 kt
SIGMETs :     Misc.  Thunderstorms  Icing  Turbulence  Mountain Waves  Volcanic Ashes






- Airport Elevation : 1115 ft
- IATA code : GRZ


LOWG - Graz

CURRENT METAR :
  • 180250Z AUTO 17003KT 5000 BR OVC007 M01/M01 Q1023

EXPIRED METARs :
  • 180220Z AUTO 18003KT 6000 FEW006 BKN007 M01/M01 Q1023
  • 180150Z AUTO 20003KT 170V240 6000 FEW006 BKN007 M00/M01 Q1023
  • 180120Z AUTO 19002KT 7000 BKN007 M00/M01 Q1023
  • 180050Z AUTO VRB02KT 5000 BR FEW007 BKN008 M00/M01 Q1023
  • 180020Z AUTO 16003KT 6000 FEW007 BKN008 M01/M01 Q1023

TAF TAF LOWG
Valid from the 18 at 00:00 until the 19 at 00:00 UTC


172315Z 1800/1824 VRB02KT 5000 BR BKN010 TXM00/1813Z TNM02/1807Z
TEMPO 1800/1808 0300 FZFG VV001
TEMPO 1808/1812 2000 FZBCFG BKN003
PROB40
TEMPO 1812/1824 3000 -FZRASN BR SCT010 BKN050



MET'MAP, your aeronautical weather chart ! - Copyright ORBIFLY December 2007 - Disclaimer

ORBIFLY MET'MAP TEAM :

Programming & Development : Alexandra Zaïnal
Concept & original design : Baudouin d'Aumeries
Assistance for programming : Marc-Olivier Méhu
Technical & hardware support : Manuel Goepfert

Contact : metmap@orbifly.com




SOURCES & CREDITS :

   NOAA